Time;durP1;ratioP1;P1;durP2;ratioP2;P2;SDS_P1;SDS_P2;PMS_P1;PMS_P2;Temp;Humidity;BMP_temperature;BMP_pressure;BME280_temperature;BME280_humidity;BME280_pressure;Samples;Min_cycle;Max_cycle;Signal;HPM_P1;HPM_P2
2023/10/19 00:01:27;;;;;;;19.48;13.18;;;;;;;;;;6194275;23;20027;-87
2023/10/19 00:03:56;;;;;;;20.10;13.90;;;;;;;;;;6194356;23;20020;-88
2023/10/19 00:06:23;;;;;;;24.77;13.98;;;;;;;;;;6194098;23;20023;-88
2023/10/19 00:08:52;;;;;;;19.83;13.05;;;;;;;;;;6193387;23;20028;-88
2023/10/19 00:11:22;;;;;;;20.15;13.52;;;;;;;;;;6194407;23;20020;-88
2023/10/19 00:13:53;;;;;;;21.52;14.55;;;;;;;;;;6195359;23;20062;-88
2023/10/19 00:16:23;;;;;;;22.50;14.95;;;;;;;;;;6194493;23;20404;-88
2023/10/19 00:18:52;;;;;;;20.60;13.90;;;;;;;;;;6195333;23;20019;-88
2023/10/19 00:21:23;;;;;;;18.70;13.70;;;;;;;;;;6194770;23;20020;-87
2023/10/19 00:23:51;;;;;;;16.52;11.02;;;;;;;;;;6193360;23;20020;-87
2023/10/19 00:26:19;;;;;;;18.27;13.27;;;;;;;;;;6193936;23;20062;-86
2023/10/19 00:28:48;;;;;;;21.33;14.57;;;;;;;;;;6164072;23;20036;-86
2023/10/19 00:31:14;;;;;;;21.88;14.85;;;;;;;;;;6188647;23;20052;-86
2023/10/19 00:33:40;;;;;;;23.15;15.35;;;;;;;;;;6162519;23;20033;-87
2023/10/19 00:36:07;;;;;;;23.80;15.95;;;;;;;;;;6188480;23;20093;-88
2023/10/19 00:43:42;;;;;;;24.40;15.18;;;;;;;;;;6189000;23;20029;-88
2023/10/19 00:48:46;;;;;;;28.27;15.85;;;;;;;;;;6194810;23;20024;-89
2023/10/19 00:53:59;;;;;;;26.13;16.35;;;;;;;;;;6215776;23;20023;-88
2023/10/19 00:56:31;;;;;;;22.00;15.35;;;;;;;;;;6188725;23;20021;-89
2023/10/19 00:59:13;;;;;;;23.58;15.77;;;;;;;;;;6189336;23;20030;-89
2023/10/19 01:01:43;;;;;;;28.40;15.98;;;;;;;;;;6164981;23;20067;-89
2023/10/19 01:04:31;;;;;;;24.15;15.88;;;;;;;;;;6165152;23;20107;-89
2023/10/19 01:07:15;;;;;;;22.27;15.73;;;;;;;;;;6215608;23;20055;-89
2023/10/19 01:09:43;;;;;;;24.55;17.13;;;;;;;;;;6164338;23;20425;-89
2023/10/19 01:12:25;;;;;;;25.05;15.15;;;;;;;;;;6163157;23;20349;-88
2023/10/19 01:15:16;;;;;;;26.48;17.35;;;;;;;;;;6163790;23;20385;-88
2023/10/19 01:17:44;;;;;;;26.58;17.08;;;;;;;;;;6188547;23;20017;-89
2023/10/19 01:20:21;;;;;;;26.63;16.38;;;;;;;;;;6163758;23;20091;-88
2023/10/19 01:23:06;;;;;;;25.55;16.85;;;;;;;;;;6164344;23;20017;-87
2023/10/19 01:25:36;;;;;;;26.40;17.05;;;;;;;;;;6163584;23;20012;-87
2023/10/19 01:28:07;;;;;;;22.52;14.40;;;;;;;;;;6177971;23;20020;-87
2023/10/19 01:30:33;;;;;;;27.13;17.50;;;;;;;;;;6216014;23;20028;-87
2023/10/19 01:33:00;;;;;;;26.20;17.25;;;;;;;;;;6193138;23;20016;-86
2023/10/19 01:35:27;;;;;;;26.33;16.55;;;;;;;;;;6192999;23;20395;-87
2023/10/19 01:37:53;;;;;;;29.08;17.80;;;;;;;;;;6193634;23;20012;-88
2023/10/19 01:40:22;;;;;;;27.35;17.88;;;;;;;;;;6193787;23;20081;-88
2023/10/19 01:42:48;;;;;;;27.13;18.05;;;;;;;;;;6193343;23;20142;-87
2023/10/19 01:45:18;;;;;;;25.73;17.88;;;;;;;;;;6217035;23;20016;-87
2023/10/19 01:47:44;;;;;;;25.02;16.48;;;;;;;;;;6192520;23;20091;-87
2023/10/19 01:50:19;;;;;;;26.65;17.77;;;;;;;;;;6192853;23;20046;-86
2023/10/19 01:52:45;;;;;;;25.83;17.42;;;;;;;;;;6191526;23;20031;-87
2023/10/19 01:55:12;;;;;;;25.33;16.95;;;;;;;;;;6192986;23;20044;-87
2023/10/19 01:57:39;;;;;;;24.65;17.10;;;;;;;;;;6192429;23;20395;-86
2023/10/19 02:00:11;;;;;;;26.23;17.33;;;;;;;;;;6216715;23;20043;-86
2023/10/19 02:02:37;;;;;;;27.90;18.27;;;;;;;;;;6217826;23;20024;-87
2023/10/19 02:05:09;;;;;;;27.85;18.80;;;;;;;;;;6192628;23;20016;-87
2023/10/19 02:07:35;;;;;;;27.27;18.63;;;;;;;;;;6192794;23;20016;-87
2023/10/19 02:10:02;;;;;;;28.88;18.83;;;;;;;;;;6191626;23;20082;-87
2023/10/19 02:12:29;;;;;;;25.95;18.08;;;;;;;;;;6192936;23;20455;-86
2023/10/19 02:14:55;;;;;;;26.10;18.02;;;;;;;;;;6192938;23;20020;-86
2023/10/19 02:17:23;;;;;;;30.02;19.35;;;;;;;;;;6193029;23;20351;-87
2023/10/19 02:19:49;;;;;;;27.85;18.33;;;;;;;;;;6192358;23;20101;-86
2023/10/19 02:22:17;;;;;;;30.65;19.65;;;;;;;;;;6192615;23;20444;-86
2023/10/19 02:24:43;;;;;;;26.90;18.10;;;;;;;;;;6194569;23;20091;-87
2023/10/19 02:27:09;;;;;;;22.85;16.02;;;;;;;;;;6194682;23;20483;-87
2023/10/19 02:29:36;;;;;;;24.70;17.63;;;;;;;;;;6194478;23;20540;-87
2023/10/19 02:32:04;;;;;;;24.52;17.13;;;;;;;;;;6194919;23;20519;-88
2023/10/19 02:34:30;;;;;;;22.33;14.63;;;;;;;;;;6195842;23;20020;-88
2023/10/19 02:36:56;;;;;;;25.23;16.98;;;;;;;;;;6195341;23;20059;-88
2023/10/19 02:39:28;;;;;;;25.63;16.98;;;;;;;;;;6220816;23;20024;-88
2023/10/19 02:42:01;;;;;;;23.85;15.65;;;;;;;;;;6195376;23;20019;-89
2023/10/19 02:44:30;;;;;;;23.98;15.88;;;;;;;;;;6195927;23;20016;-89
2023/10/19 02:47:00;;;;;;;23.42;16.27;;;;;;;;;;6195774;23;20208;-88
2023/10/19 02:49:26;;;;;;;24.02;16.33;;;;;;;;;;6247476;23;20022;-89
2023/10/19 02:51:53;;;;;;;24.90;16.75;;;;;;;;;;6219746;23;20016;-89
2023/10/19 02:54:24;;;;;;;19.17;14.68;;;;;;;;;;6194715;23;20472;-89
2023/10/19 02:56:58;;;;;;;22.33;14.93;;;;;;;;;;6219969;23;20020;-88
2023/10/19 02:59:25;;;;;;;21.45;14.95;;;;;;;;;;6247006;23;20016;-89
2023/10/19 03:01:53;;;;;;;22.30;14.18;;;;;;;;;;6194993;23;20348;-88
2023/10/19 03:04:20;;;;;;;16.17;12.68;;;;;;;;;;6194414;23;20263;-88
2023/10/19 03:06:46;;;;;;;21.17;13.77;;;;;;;;;;6219092;23;20020;-88
2023/10/19 03:11:55;;;;;;;21.60;14.52;;;;;;;;;;6218707;23;20499;-88
2023/10/19 03:14:24;;;;;;;17.38;13.55;;;;;;;;;;6194087;23;20030;-88
2023/10/19 03:16:51;;;;;;;19.85;13.57;;;;;;;;;;6219358;23;20046;-88
2023/10/19 03:19:17;;;;;;;19.25;13.43;;;;;;;;;;6219623;23;20479;-89
2023/10/19 03:21:43;;;;;;;16.90;13.07;;;;;;;;;;6219577;23;20020;-88
2023/10/19 03:24:15;;;;;;;16.92;12.63;;;;;;;;;;6193881;23;20020;-87
2023/10/19 03:26:48;;;;;;;16.70;12.00;;;;;;;;;;6218798;23;20063;-88
2023/10/19 03:29:15;;;;;;;15.23;11.32;;;;;;;;;;6219440;23;20444;-88
2023/10/19 03:31:45;;;;;;;15.93;11.73;;;;;;;;;;6219781;23;20306;-87
2023/10/19 03:34:18;;;;;;;15.55;11.43;;;;;;;;;;6218802;23;20341;-87
2023/10/19 03:36:44;;;;;;;14.68;11.32;;;;;;;;;;6193977;23;20479;-87
2023/10/19 03:39:14;;;;;;;15.68;11.57;;;;;;;;;;6194699;23;20047;-87
2023/10/19 03:41:44;;;;;;;18.05;12.75;;;;;;;;;;6194247;23;20052;-88
2023/10/19 03:44:40;;;;;;;14.60;11.02;;;;;;;;;;6194159;23;20016;-88
2023/10/19 03:47:04;;;;;;;14.98;11.32;;;;;;;;;;6217733;23;20134;-87
2023/10/19 03:49:39;;;;;;;16.90;12.02;;;;;;;;;;6194150;23;20025;-88
2023/10/19 03:54:44;;;;;;;17.15;10.93;;;;;;;;;;6220074;23;20024;-88
2023/10/19 03:57:25;;;;;;;15.50;11.47;;;;;;;;;;6194803;23;20372;-88
2023/10/19 04:00:00;;;;;;;13.02;9.73;;;;;;;;;;6194828;23;20434;-88
2023/10/19 04:02:29;;;;;;;15.75;10.77;;;;;;;;;;6194274;23;20035;-88
2023/10/19 04:04:57;;;;;;;14.32;10.85;;;;;;;;;;6194791;23;20449;-87
2023/10/19 04:07:26;;;;;;;14.05;10.27;;;;;;;;;;6193592;23;20102;-87
2023/10/19 04:12:36;;;;;;;14.52;10.48;;;;;;;;;;6219087;23;20330;-87
2023/10/19 04:15:11;;;;;;;14.55;10.02;;;;;;;;;;6194099;23;20020;-87
2023/10/19 04:17:42;;;;;;;12.63;10.10;;;;;;;;;;6193546;23;20067;-86
2023/10/19 04:22:44;;;;;;;13.13;9.57;;;;;;;;;;6219331;23;20016;-87
2023/10/19 04:25:15;;;;;;;18.90;12.65;;;;;;;;;;6194765;23;20401;-87
2023/10/19 04:27:42;;;;;;;17.80;11.25;;;;;;;;;;6194059;23;20016;-88
2023/10/19 04:30:21;;;;;;;44.05;26.45;;;;;;;;;;6194207;23;20020;-88
2023/10/19 04:32:48;;;;;;;35.63;23.10;;;;;;;;;;6194367;23;20066;-87
2023/10/19 04:35:21;;;;;;;29.95;21.48;;;;;;;;;;6194233;23;20047;-88
2023/10/19 04:37:47;;;;;;;12.93;10.40;;;;;;;;;;6193650;23;20444;-88
2023/10/19 04:40:13;;;;;;;12.80;10.10;;;;;;;;;;6194532;23;20027;-88
2023/10/19 04:42:39;;;;;;;12.40;9.48;;;;;;;;;;6218817;23;20008;-88
2023/10/19 04:45:06;;;;;;;14.75;12.00;;;;;;;;;;6194674;23;20023;-87
2023/10/19 04:47:35;;;;;;;17.85;14.27;;;;;;;;;;6193699;23;20047;-87
2023/10/19 04:50:02;;;;;;;13.65;11.13;;;;;;;;;;6193877;23;20016;-88
2023/10/19 04:52:29;;;;;;;14.55;10.93;;;;;;;;;;6193693;23;20012;-87
2023/10/19 04:54:55;;;;;;;25.90;20.98;;;;;;;;;;6192489;23;20020;-87
2023/10/19 04:57:21;;;;;;;15.68;11.98;;;;;;;;;;6218792;23;20586;-87
2023/10/19 04:59:47;;;;;;;12.35;10.32;;;;;;;;;;6218363;23;20023;-88
2023/10/19 05:02:13;;;;;;;14.27;11.63;;;;;;;;;;6220629;23;20012;-88
2023/10/19 05:04:40;;;;;;;12.27;9.48;;;;;;;;;;6219304;23;20400;-88
2023/10/19 05:07:11;;;;;;;14.02;10.48;;;;;;;;;;6194124;23;20036;-87
2023/10/19 05:09:39;;;;;;;12.32;9.07;;;;;;;;;;6194064;23;20019;-88
2023/10/19 05:12:09;;;;;;;13.23;10.32;;;;;;;;;;6193215;23;20016;-87
2023/10/19 05:14:35;;;;;;;12.75;9.55;;;;;;;;;;6218369;23;20456;-86
2023/10/19 05:17:05;;;;;;;12.27;9.95;;;;;;;;;;6218187;23;20020;-87
2023/10/19 05:19:34;;;;;;;12.15;9.02;;;;;;;;;;6217449;23;20055;-87
2023/10/19 05:22:01;;;;;;;15.77;9.57;;;;;;;;;;6218314;23;20055;-88
2023/10/19 05:24:27;;;;;;;10.82;8.50;;;;;;;;;;6215995;23;20020;-87
2023/10/19 05:26:53;;;;;;;12.27;9.10;;;;;;;;;;6217527;23;20016;-87
2023/10/19 05:29:20;;;;;;;12.60;9.15;;;;;;;;;;6217576;23;20397;-88
2023/10/19 05:31:46;;;;;;;10.40;8.07;;;;;;;;;;6217223;23;20043;-88
2023/10/19 05:34:12;;;;;;;11.48;8.27;;;;;;;;;;6217761;23;20016;-87
2023/10/19 05:36:45;;;;;;;10.38;8.23;;;;;;;;;;6218864;23;20103;-88
2023/10/19 05:39:11;;;;;;;9.57;7.75;;;;;;;;;;6219451;23;20027;-88
2023/10/19 05:41:38;;;;;;;10.32;8.00;;;;;;;;;;6220012;23;20016;-87
2023/10/19 05:44:04;;;;;;;9.68;7.20;;;;;;;;;;6218828;23;20016;-87
2023/10/19 05:46:31;;;;;;;9.45;7.32;;;;;;;;;;6217859;23;20448;-86
2023/10/19 05:48:58;;;;;;;9.52;7.32;;;;;;;;;;6218344;23;20027;-86
2023/10/19 05:51:24;;;;;;;10.07;7.25;;;;;;;;;;6217782;23;20039;-86
2023/10/19 05:54:01;;;;;;;9.80;7.50;;;;;;;;;;6218032;23;20141;-86
2023/10/19 05:56:27;;;;;;;8.73;7.15;;;;;;;;;;6218405;23;20429;-86
2023/10/19 05:58:53;;;;;;;9.35;7.25;;;;;;;;;;6218017;23;20016;-86
2023/10/19 06:01:20;;;;;;;8.77;7.18;;;;;;;;;;6221401;23;20093;-86
2023/10/19 06:03:46;;;;;;;9.32;6.85;;;;;;;;;;6221030;23;20016;-86
2023/10/19 06:06:12;;;;;;;8.30;6.70;;;;;;;;;;6220546;23;20452;-86
2023/10/19 06:08:38;;;;;;;9.55;7.95;;;;;;;;;;6220741;23;20019;-86
2023/10/19 06:11:04;;;;;;;12.30;7.38;;;;;;;;;;6246957;23;20016;-86
2023/10/19 06:13:31;;;;;;;10.60;7.15;;;;;;;;;;6221018;23;20113;-86
2023/10/19 06:15:57;;;;;;;9.27;7.70;;;;;;;;;;6195551;23;20027;-86
2023/10/19 06:18:24;;;;;;;8.80;7.18;;;;;;;;;;6249570;23;20043;-86
2023/10/19 06:20:51;;;;;;;8.82;6.88;;;;;;;;;;6221103;23;20024;-86
2023/10/19 06:23:17;;;;;;;8.05;6.13;;;;;;;;;;6221442;23;20070;-86
2023/10/19 06:25:44;;;;;;;8.90;7.00;;;;;;;;;;6220657;23;20471;-86
2023/10/19 06:28:13;;;;;;;8.88;7.35;;;;;;;;;;6220575;23;20340;-87
2023/10/19 06:30:40;;;;;;;8.80;7.25;;;;;;;;;;6196276;23;20012;-87
2023/10/19 06:33:06;;;;;;;8.77;7.15;;;;;;;;;;6248080;23;20054;-86
2023/10/19 06:35:33;;;;;;;8.73;6.82;;;;;;;;;;6196001;23;20054;-87
2023/10/19 06:38:00;;;;;;;10.27;7.47;;;;;;;;;;6195645;23;20095;-86
2023/10/19 06:40:29;;;;;;;9.32;7.38;;;;;;;;;;6248117;23;20016;-86
2023/10/19 06:42:58;;;;;;;10.85;7.82;;;;;;;;;;6220882;23;20448;-87
2023/10/19 06:45:25;;;;;;;10.20;7.70;;;;;;;;;;6221336;23;20065;-87
2023/10/19 06:47:52;;;;;;;10.45;7.35;;;;;;;;;;6221461;23;20179;-87
2023/10/19 06:50:19;;;;;;;9.77;7.63;;;;;;;;;;6195911;23;20024;-88
2023/10/19 06:52:49;;;;;;;9.75;6.75;;;;;;;;;;6220699;23;20012;-87
2023/10/19 06:55:16;;;;;;;8.57;6.40;;;;;;;;;;6246238;23;20027;-88
2023/10/19 06:57:45;;;;;;;8.80;7.47;;;;;;;;;;6246951;23;20062;-87
2023/10/19 07:00:14;;;;;;;10.88;7.20;;;;;;;;;;6220468;23;20015;-87
2023/10/19 07:02:44;;;;;;;8.57;7.13;;;;;;;;;;6221016;23;20016;-87
2023/10/19 07:05:24;;;;;;;9.30;7.28;;;;;;;;;;6220954;23;20047;-87
2023/10/19 07:07:51;;;;;;;9.30;7.45;;;;;;;;;;6221041;23;20095;-87
2023/10/19 07:10:18;;;;;;;9.43;7.28;;;;;;;;;;6219879;23;20020;-87
2023/10/19 07:12:46;;;;;;;9.07;7.28;;;;;;;;;;6194148;23;20016;-88
2023/10/19 07:15:15;;;;;;;7.53;6.70;;;;;;;;;;6220165;23;20056;-88
2023/10/19 07:17:42;;;;;;;6.60;5.90;;;;;;;;;;6219582;23;20017;-86
2023/10/19 07:20:17;;;;;;;7.13;6.15;;;;;;;;;;6220051;23;20012;-87
2023/10/19 07:22:44;;;;;;;6.43;4.97;;;;;;;;;;6219835;23;20020;-87
2023/10/19 07:25:11;;;;;;;7.00;5.80;;;;;;;;;;6194307;23;20024;-87
2023/10/19 07:27:37;;;;;;;7.03;6.03;;;;;;;;;;6218509;23;20016;-88
2023/10/19 07:30:09;;;;;;;6.35;5.50;;;;;;;;;;6195270;23;20024;-88
2023/10/19 07:32:35;;;;;;;7.05;5.60;;;;;;;;;;6194467;23;20319;-87
2023/10/19 07:35:01;;;;;;;6.40;5.15;;;;;;;;;;6219806;23;20027;-87
2023/10/19 07:37:28;;;;;;;7.38;6.15;;;;;;;;;;6246821;23;20020;-87
2023/10/19 07:39:57;;;;;;;6.75;5.60;;;;;;;;;;6218965;23;20020;-87
2023/10/19 07:42:23;;;;;;;6.20;5.50;;;;;;;;;;6219803;23;20103;-87
2023/10/19 07:44:49;;;;;;;6.47;5.70;;;;;;;;;;6219629;23;20023;-88
2023/10/19 07:47:15;;;;;;;7.50;5.63;;;;;;;;;;6194664;23;20519;-88
2023/10/19 07:49:44;;;;;;;7.03;5.53;;;;;;;;;;6195150;23;20024;-89
2023/10/19 07:52:10;;;;;;;6.57;5.88;;;;;;;;;;6195076;23;20013;-87
2023/10/19 07:54:37;;;;;;;7.82;5.55;;;;;;;;;;6194489;23;20104;-87
2023/10/19 07:57:07;;;;;;;8.05;5.32;;;;;;;;;;6195009;23;20095;-87
2023/10/19 07:59:33;;;;;;;6.30;5.45;;;;;;;;;;6220909;23;20027;-87
2023/10/19 08:02:04;;;;;;;6.40;5.00;;;;;;;;;;6194540;23;20012;-87
2023/10/19 08:04:30;;;;;;;6.25;5.20;;;;;;;;;;6195315;23;20016;-87
2023/10/19 08:06:57;;;;;;;6.10;5.30;;;;;;;;;;6219555;23;20405;-87
2023/10/19 08:09:23;;;;;;;6.78;5.03;;;;;;;;;;6219844;23;20098;-86
2023/10/19 08:11:50;;;;;;;6.50;5.20;;;;;;;;;;6218973;23;20023;-87
2023/10/19 08:14:16;;;;;;;7.38;5.78;;;;;;;;;;6218987;23;20055;-87
2023/10/19 08:16:43;;;;;;;7.35;5.47;;;;;;;;;;6193076;23;20023;-86
2023/10/19 08:19:09;;;;;;;6.75;5.20;;;;;;;;;;6194247;23;20035;-87
2023/10/19 08:21:35;;;;;;;6.38;5.40;;;;;;;;;;6219371;23;20020;-87
2023/10/19 08:24:04;;;;;;;6.97;5.68;;;;;;;;;;6219257;23;20070;-86
2023/10/19 08:26:30;;;;;;;6.22;5.63;;;;;;;;;;6217757;23;20024;-86
2023/10/19 08:28:58;;;;;;;6.72;5.72;;;;;;;;;;6193018;23;20070;-87
2023/10/19 08:31:25;;;;;;;6.82;5.72;;;;;;;;;;6193007;23;20012;-87
2023/10/19 08:33:51;;;;;;;6.80;5.15;;;;;;;;;;6218751;23;20099;-87
2023/10/19 08:36:21;;;;;;;6.25;5.18;;;;;;;;;;6193334;23;20440;-87
2023/10/19 08:38:47;;;;;;;6.78;5.53;;;;;;;;;;6194078;23;20016;-87
2023/10/19 08:41:17;;;;;;;6.13;5.20;;;;;;;;;;6193260;23;20395;-88
2023/10/19 08:43:43;;;;;;;5.72;4.65;;;;;;;;;;6193585;23;20055;-87
2023/10/19 08:46:10;;;;;;;5.57;4.85;;;;;;;;;;6218140;23;20091;-88
2023/10/19 08:48:38;;;;;;;6.18;5.07;;;;;;;;;;6193731;23;20051;-88
2023/10/19 08:51:07;;;;;;;7.22;5.72;;;;;;;;;;6194531;23;20056;-88
2023/10/19 08:53:39;;;;;;;6.20;5.05;;;;;;;;;;6194857;23;20019;-87
2023/10/19 08:56:06;;;;;;;6.45;5.13;;;;;;;;;;6194293;23;20024;-87
2023/10/19 08:58:32;;;;;;;6.30;5.10;;;;;;;;;;6194243;23;20098;-87
2023/10/19 09:01:06;;;;;;;6.20;5.28;;;;;;;;;;6194016;23;20456;-87
2023/10/19 09:03:32;;;;;;;6.13;5.10;;;;;;;;;;6193976;23;20043;-87
2023/10/19 09:06:01;;;;;;;6.15;5.55;;;;;;;;;;6193787;23;20130;-87
2023/10/19 09:08:38;;;;;;;6.43;5.30;;;;;;;;;;6193976;23;20016;-86
2023/10/19 09:11:08;;;;;;;5.93;5.13;;;;;;;;;;6218083;23;20051;-86
2023/10/19 09:13:47;;;;;;;5.93;5.25;;;;;;;;;;6194031;23;20408;-87
2023/10/19 09:16:17;;;;;;;6.53;5.63;;;;;;;;;;6194065;23;20077;-86
2023/10/19 09:18:44;;;;;;;8.35;5.57;;;;;;;;;;6218708;23;20016;-86
2023/10/19 09:21:23;;;;;;;6.72;5.57;;;;;;;;;;6193378;23;20023;-86
2023/10/19 09:23:50;;;;;;;8.38;6.28;;;;;;;;;;6218383;23;20368;-86
2023/10/19 09:26:17;;;;;;;7.43;6.35;;;;;;;;;;6192929;23;20012;-87
2023/10/19 09:28:47;;;;;;;8.80;6.57;;;;;;;;;;6218468;23;20087;-87
2023/10/19 09:31:13;;;;;;;7.32;6.07;;;;;;;;;;6192954;23;20012;-87
2023/10/19 09:33:43;;;;;;;9.07;6.50;;;;;;;;;;6216273;23;20066;-87
2023/10/19 09:36:13;;;;;;;7.90;6.50;;;;;;;;;;6193160;23;20413;-86
2023/10/19 09:38:50;;;;;;;8.88;6.72;;;;;;;;;;6193157;23;20050;-88
2023/10/19 09:41:21;;;;;;;9.50;6.80;;;;;;;;;;6245432;23;20019;-86
2023/10/19 09:43:48;;;;;;;8.65;6.70;;;;;;;;;;6218504;23;20095;-88
2023/10/19 09:46:24;;;;;;;9.90;7.18;;;;;;;;;;6219992;23;20030;-88
2023/10/19 09:48:51;;;;;;;;;;;;;;;;;;6224938;23;20020;-86
2023/10/19 09:51:19;;;;;;;8.50;7.38;;;;;;;;;;6194692;23;19920;-87
2023/10/19 09:53:47;;;;;;;8.57;7.07;;;;;;;;;;6218883;23;20095;-87
2023/10/19 09:56:21;;;;;;;8.88;6.80;;;;;;;;;;6218791;23;20087;-88
2023/10/19 09:58:49;;;;;;;11.20;7.20;;;;;;;;;;6219245;23;20031;-87
2023/10/19 10:01:16;;;;;;;9.00;6.70;;;;;;;;;;6193805;23;20016;-87
2023/10/19 10:03:42;;;;;;;9.25;7.13;;;;;;;;;;6218495;23;20088;-88
2023/10/19 10:06:08;;;;;;;9.95;7.50;;;;;;;;;;6219160;23;20020;-87
2023/10/19 10:08:37;;;;;;;9.73;7.68;;;;;;;;;;6218399;23;20441;-88
2023/10/19 10:11:21;;;;;;;11.60;7.65;;;;;;;;;;6193565;23;20028;-88
2023/10/19 10:13:51;;;;;;;11.23;7.80;;;;;;;;;;6220101;23;20440;-88
2023/10/19 10:16:18;;;;;;;9.20;7.63;;;;;;;;;;6219604;23;20437;-87
2023/10/19 10:18:46;;;;;;;9.02;7.07;;;;;;;;;;6193667;23;20100;-88
2023/10/19 10:21:14;;;;;;;9.77;7.32;;;;;;;;;;6194222;23;20393;-87
2023/10/19 10:23:49;;;;;;;9.65;7.40;;;;;;;;;;6219324;23;20026;-88
2023/10/19 10:26:16;;;;;;;11.30;7.82;;;;;;;;;;6219617;23;20008;-87
2023/10/19 10:28:46;;;;;;;10.68;8.05;;;;;;;;;;6218998;23;20110;-87
2023/10/19 10:31:24;;;;;;;10.77;8.10;;;;;;;;;;6193833;23;20024;-88
2023/10/19 10:33:51;;;;;;;8.60;7.70;;;;;;;;;;6219501;23;20020;-88
2023/10/19 10:36:37;;;;;;;11.50;8.23;;;;;;;;;;6193952;23;20024;-86
2023/10/19 10:39:16;;;;;;;11.27;8.65;;;;;;;;;;6153502;23;20077;-88
2023/10/19 10:41:42;;;;;;;9.68;7.60;;;;;;;;;;6217876;23;20028;-87
2023/10/19 10:44:08;;;;;;;11.23;8.93;;;;;;;;;;6218864;23;20012;-87
2023/10/19 10:46:34;;;;;;;12.48;8.73;;;;;;;;;;6220308;23;20030;-87
2023/10/19 10:49:02;;;;;;;12.77;8.40;;;;;;;;;;6221047;23;20107;-87
2023/10/19 10:51:28;;;;;;;13.10;9.30;;;;;;;;;;6220487;23;20012;-87
2023/10/19 10:53:56;;;;;;;14.38;8.85;;;;;;;;;;6219948;23;20016;-87
2023/10/19 10:56:23;;;;;;;10.20;7.68;;;;;;;;;;6220883;23;20024;-87
2023/10/19 10:58:54;;;;;;;10.27;7.32;;;;;;;;;;6219898;23;20023;-88
2023/10/19 11:01:33;;;;;;;12.70;8.38;;;;;;;;;;6220460;23;20024;-87
2023/10/19 11:04:06;;;;;;;11.77;8.55;;;;;;;;;;6220203;23;20035;-87
2023/10/19 11:06:32;;;;;;;11.00;8.65;;;;;;;;;;6220176;23;20070;-88
2023/10/19 11:08:59;;;;;;;8.23;6.60;;;;;;;;;;6220190;23;20016;-88
2023/10/19 11:11:25;;;;;;;10.50;7.53;;;;;;;;;;6195991;23;20012;-89
2023/10/19 11:13:51;;;;;;;10.30;7.50;;;;;;;;;;6195214;23;20429;-88
2023/10/19 11:16:25;;;;;;;10.85;7.07;;;;;;;;;;6219518;23;20070;-88
2023/10/19 11:18:51;;;;;;;11.05;7.32;;;;;;;;;;6220611;23;20073;-87
2023/10/19 11:21:21;;;;;;;10.57;7.32;;;;;;;;;;6195481;23;20024;-87
2023/10/19 11:23:49;;;;;;;9.73;7.22;;;;;;;;;;6194384;23;20023;-88
2023/10/19 11:26:17;;;;;;;11.73;8.10;;;;;;;;;;6219084;23;20046;-88
2023/10/19 11:28:47;;;;;;;8.30;7.47;;;;;;;;;;6193653;23;20020;-86
2023/10/19 11:31:13;;;;;;;9.63;7.43;;;;;;;;;;6218997;23;20023;-86
2023/10/19 11:33:41;;;;;;;10.05;7.43;;;;;;;;;;6220309;23;20020;-86
2023/10/19 11:36:07;;;;;;;10.65;7.63;;;;;;;;;;6245975;23;20114;-85
2023/10/19 11:38:33;;;;;;;10.02;8.13;;;;;;;;;;6224332;23;20391;-85
2023/10/19 11:40:59;;;;;;;11.40;7.65;;;;;;;;;;6222694;23;20020;-86
2023/10/19 11:43:25;;;;;;;10.10;7.43;;;;;;;;;;6221404;23;20083;-86
2023/10/19 11:45:52;;;;;;;8.82;6.90;;;;;;;;;;6217963;23;20024;-86
2023/10/19 11:48:18;;;;;;;11.02;7.28;;;;;;;;;;6219269;23;20453;-85
2023/10/19 11:50:44;;;;;;;10.10;7.55;;;;;;;;;;6218508;23;20024;-86
2023/10/19 11:53:10;;;;;;;10.35;7.30;;;;;;;;;;6218587;23;20054;-86
2023/10/19 11:55:36;;;;;;;9.10;7.47;;;;;;;;;;6218519;23;20013;-86
2023/10/19 11:58:02;;;;;;;11.20;8.32;;;;;;;;;;6218985;23;20038;-86
2023/10/19 12:00:37;;;;;;;11.77;8.18;;;;;;;;;;6219256;23;20447;-86
2023/10/19 12:03:03;;;;;;;12.02;9.35;;;;;;;;;;6219352;23;20019;-86
2023/10/19 12:05:30;;;;;;;14.18;11.13;;;;;;;;;;6218958;23;20408;-86
2023/10/19 12:07:56;;;;;;;17.02;13.00;;;;;;;;;;6218802;23;20026;-86
2023/10/19 12:10:32;;;;;;;19.27;14.70;;;;;;;;;;6193686;23;20020;-86
2023/10/19 12:12:58;;;;;;;17.35;12.60;;;;;;;;;;6193709;23;20115;-86
2023/10/19 12:15:25;;;;;;;16.92;13.13;;;;;;;;;;6194467;23;20027;-86
2023/10/19 12:17:51;;;;;;;19.65;12.75;;;;;;;;;;6193788;23;20020;-86
2023/10/19 12:20:21;;;;;;;14.15;11.68;;;;;;;;;;6219326;23;20031;-86
2023/10/19 12:22:47;;;;;;;12.88;9.57;;;;;;;;;;6194218;23;20507;-86
2023/10/19 12:25:14;;;;;;;11.90;9.73;;;;;;;;;;6246149;23;20306;-87
2023/10/19 12:27:40;;;;;;;13.10;9.40;;;;;;;;;;6193617;23;20028;-86
2023/10/19 12:30:19;;;;;;;10.73;9.40;;;;;;;;;;6218793;23;20031;-86
2023/10/19 12:32:46;;;;;;;8.63;7.72;;;;;;;;;;6218768;23;20032;-85
2023/10/19 12:35:14;;;;;;;11.48;8.18;;;;;;;;;;6219822;23;20028;-86
2023/10/19 12:37:46;;;;;;;9.45;7.60;;;;;;;;;;6219425;23;20020;-86
2023/10/19 12:40:29;;;;;;;9.75;7.45;;;;;;;;;;6219588;23;20062;-86
2023/10/19 12:42:55;;;;;;;10.27;7.70;;;;;;;;;;6194466;23;20024;-88
2023/10/19 12:45:25;;;;;;;10.25;7.28;;;;;;;;;;6194329;23;20119;-86
2023/10/19 12:47:51;;;;;;;8.15;6.72;;;;;;;;;;6219222;23;20046;-86
2023/10/19 12:50:23;;;;;;;19.73;13.18;;;;;;;;;;6219270;23;20420;-86
2023/10/19 12:52:50;;;;;;;10.63;7.95;;;;;;;;;;6219189;23;20019;-86
2023/10/19 12:55:16;;;;;;;9.25;7.63;;;;;;;;;;6246349;23;20012;-86
2023/10/19 12:57:43;;;;;;;9.68;7.85;;;;;;;;;;6193498;23;20016;-86
2023/10/19 13:00:35;;;;;;;9.23;7.22;;;;;;;;;;6194500;23;20483;-86
2023/10/19 13:03:03;;;;;;;6.68;5.22;;;;;;;;;;6219024;23;20062;-86
2023/10/19 13:05:33;;;;;;;10.55;8.05;;;;;;;;;;6219046;23;20087;-86
2023/10/19 13:08:00;;;;;;;8.57;6.90;;;;;;;;;;6193640;23;20012;-86
2023/10/19 13:10:32;;;;;;;8.30;6.95;;;;;;;;;;6220069;23;20109;-86
2023/10/19 13:13:05;;;;;;;8.30;6.10;;;;;;;;;;6247914;23;20016;-86
2023/10/19 13:15:36;;;;;;;7.15;5.57;;;;;;;;;;6194584;23;20020;-86
2023/10/19 13:18:02;;;;;;;14.23;8.23;;;;;;;;;;6194399;23;20024;-86
2023/10/19 13:20:34;;;;;;;7.95;5.65;;;;;;;;;;6246660;23;20016;-86
2023/10/19 13:23:11;;;;;;;49.28;26.33;;;;;;;;;;6219406;23;20020;-86
2023/10/19 13:28:19;;;;;;;10.98;7.60;;;;;;;;;;6249927;23;20022;-86
2023/10/19 13:30:49;;;;;;;14.88;10.18;;;;;;;;;;6229396;23;20055;-89
2023/10/19 13:33:16;;;;;;;15.20;11.07;;;;;;;;;;6226083;23;20035;-88
2023/10/19 13:35:43;;;;;;;12.10;8.73;;;;;;;;;;6202328;23;20016;-89
2023/10/19 13:38:13;;;;;;;11.43;8.13;;;;;;;;;;6198979;23;20336;-91
2023/10/19 13:40:40;;;;;;;10.65;7.55;;;;;;;;;;6196413;23;20056;-90
2023/10/19 13:43:07;;;;;;;13.43;9.00;;;;;;;;;;6195502;23;20445;-89
2023/10/19 13:45:34;;;;;;;12.27;8.50;;;;;;;;;;6195116;23;20026;-89
2023/10/19 13:48:02;;;;;;;12.60;8.55;;;;;;;;;;6195075;23;20344;-90
2023/10/19 13:50:29;;;;;;;10.40;7.57;;;;;;;;;;6219795;23;20095;-89
2023/10/19 13:53:00;;;;;;;11.40;7.47;;;;;;;;;;6192918;23;20448;-87
2023/10/19 13:55:26;;;;;;;11.43;8.52;;;;;;;;;;6194550;23;20059;-87
2023/10/19 13:57:52;;;;;;;12.10;7.38;;;;;;;;;;6217518;23;20020;-88
2023/10/19 14:00:22;;;;;;;10.82;8.30;;;;;;;;;;6219080;23;20023;-88
2023/10/19 14:02:49;;;;;;;13.45;7.50;;;;;;;;;;6218518;23;20186;-88
2023/10/19 14:05:15;;;;;;;10.82;7.20;;;;;;;;;;6193902;23;20020;-89
2023/10/19 14:07:43;;;;;;;12.60;7.75;;;;;;;;;;6193297;23;20274;-88
2023/10/19 14:10:12;;;;;;;9.07;6.88;;;;;;;;;;6194203;23;20039;-88
2023/10/19 14:12:42;;;;;;;10.18;6.53;;;;;;;;;;6245723;23;20035;-88
2023/10/19 14:15:17;;;;;;;13.35;9.77;;;;;;;;;;6218775;23;20433;-87
2023/10/19 14:17:45;;;;;;;12.48;7.68;;;;;;;;;;6193357;23;20024;-87
2023/10/19 14:20:12;;;;;;;12.38;7.60;;;;;;;;;;6219025;23;20020;-87
2023/10/19 14:22:56;;;;;;;10.88;6.53;;;;;;;;;;6219676;23;20020;-87
2023/10/19 14:25:23;;;;;;;13.00;8.77;;;;;;;;;;6220335;23;20367;-90
2023/10/19 14:27:55;;;;;;;13.63;8.57;;;;;;;;;;6195007;23;20067;-89
2023/10/19 14:30:25;;;;;;;12.43;8.10;;;;;;;;;;6195440;23;20043;-87
2023/10/19 14:32:54;;;;;;;11.23;7.28;;;;;;;;;;6194866;23;20094;-87
2023/10/19 14:35:20;;;;;;;13.95;8.38;;;;;;;;;;6195387;23;20016;-87
2023/10/19 14:37:48;;;;;;;13.90;8.70;;;;;;;;;;6219231;23;20016;-87
2023/10/19 14:40:15;;;;;;;11.45;7.97;;;;;;;;;;6194852;23;20155;-88
2023/10/19 14:42:42;;;;;;;13.52;7.88;;;;;;;;;;6219883;23;20017;-88
2023/10/19 14:45:13;;;;;;;16.90;12.63;;;;;;;;;;6195268;23;20011;-88
2023/10/19 14:47:40;;;;;;;18.58;11.88;;;;;;;;;;6219866;23;20134;-88
2023/10/19 14:50:17;;;;;;;19.33;12.23;;;;;;;;;;6219658;23;20016;-87
2023/10/19 14:52:45;;;;;;;16.60;9.98;;;;;;;;;;6219489;23;20027;-88
2023/10/19 14:55:12;;;;;;;24.50;14.50;;;;;;;;;;6194534;23;20095;-88
2023/10/19 14:57:39;;;;;;;15.30;9.60;;;;;;;;;;6219874;23;20441;-87
2023/10/19 15:00:21;;;;;;;29.63;17.33;;;;;;;;;;6220149;23;20027;-87
2023/10/19 15:02:48;;;;;;;14.30;8.95;;;;;;;;;;6220068;23;20043;-88
2023/10/19 15:05:19;;;;;;;9.90;7.57;;;;;;;;;;6219030;23;20019;-86